Time;durP1;ratioP1;P1;durP2;ratioP2;P2;SDS_P1;SDS_P2;PMS_P1;PMS_P2;Temp;Humidity;BMP_temperature;BMP_pressure;BME280_temperature;BME280_humidity;BME280_pressure;Samples;Min_cycle;Max_cycle;Signal;HPM_P1;HPM_P2
2023/04/28 00:00:01;;;;;;;25.00;14.00;;;;;;;5.27;54.49;100553.77;102783;1257;1003056;-69
2023/04/28 00:02:48;;;;;;;25.00;14.90;;;;;;;5.25;54.59;100551.55;103178;1260;116153;-69
2023/04/28 00:05:32;;;;;;;25.80;13.90;;;;;;;5.21;54.67;100550.37;102948;1261;138159;-68
2023/04/28 00:08:16;;;;;;;25.90;13.60;;;;;;;5.16;54.85;100549.69;103315;1257;99021;-69
2023/04/28 00:11:00;;;;;;;21.00;12.80;;;;;;;5.12;54.75;100553.86;102239;1260;1003008;-69
2023/04/28 00:13:44;;;;;;;27.00;13.70;;;;;;;5.06;54.78;100555.44;103206;1257;99327;-69
2023/04/28 00:16:20;;;;;;;;;;;;;;;5.02;55.16;100550.28;103952;1257;138264;-70
2023/04/28 00:19:04;;;;;;;24.80;13.60;;;;;;;4.98;55.18;100552.36;103971;1260;108832;-70
2023/04/28 00:21:48;;;;;;;24.60;13.50;;;;;;;4.96;55.35;100553.41;103181;1257;99769;-70
2023/04/28 00:24:32;;;;;;;26.20;14.50;;;;;;;4.92;55.39;100554.98;103128;1260;107725;-68
2023/04/28 00:27:16;;;;;;;27.50;14.40;;;;;;;4.90;55.50;100556.38;103583;1257;99141;-70
2023/04/28 00:29:58;;;;;;;24.40;13.60;;;;;;;4.87;55.75;100560.02;103369;1260;138748;-70
2023/04/28 00:32:42;;;;;;;26.60;14.70;;;;;;;4.83;55.93;100558.80;103115;1260;107732;-70
2023/04/28 00:35:26;;;;;;;28.30;15.10;;;;;;;4.79;55.93;100558.48;103181;1257;138287;-71
2023/04/28 00:38:02;;;;;;;;;;;;;;;4.75;56.21;100560.39;103332;1257;108016;-70
2023/04/28 00:40:33;;;;;;;28.90;15.90;;;;;;;4.71;56.37;100556.61;102334;1257;1002933;-70
2023/04/28 00:43:06;;;;;;;31.80;16.80;;;;;;;4.66;56.30;100559.72;103507;1257;112166;-70
2023/04/28 00:45:50;;;;;;;27.70;16.00;;;;;;;4.62;56.52;100561.27;103156;1257;139192;-68
2023/04/28 00:48:17;;;;;;;30.10;16.70;;;;;;;4.60;56.77;100559.40;103280;1257;99259;-70
2023/04/28 00:51:02;;;;;;;30.40;16.80;;;;;;;4.59;56.94;100562.85;103095;1257;107870;-71
2023/04/28 00:53:47;;;;;;;31.40;17.30;;;;;;;4.55;56.94;100560.96;103258;1257;138715;-70
2023/04/28 00:56:31;;;;;;;29.40;18.20;;;;;;;4.52;57.06;100558.05;103526;1260;114315;-70
2023/04/28 00:59:07;;;;;;;28.60;17.40;;;;;;;4.50;57.35;100562.19;103063;1257;139063;-70
2023/04/28 01:01:51;;;;;;;30.90;18.30;;;;;;;4.49;57.32;100564.61;103135;1258;99633;-70
2023/04/28 01:04:36;;;;;;;32.60;18.40;;;;;;;4.50;57.43;100565.63;103049;1258;138727;-68
2023/04/28 01:07:20;;;;;;;30.20;17.40;;;;;;;4.49;57.68;100566.50;103052;1260;99160;-68
2023/04/28 01:10:05;;;;;;;34.70;18.20;;;;;;;4.47;57.96;100567.52;103079;1257;138827;-68
2023/04/28 01:12:49;;;;;;;36.70;18.00;;;;;;;4.44;57.78;100568.56;102967;1260;108838;-69
2023/04/28 01:15:33;;;;;;;30.20;17.60;;;;;;;4.40;58.14;100567.36;102945;1257;99717;-69
2023/04/28 01:18:10;;;;;;;34.40;18.30;;;;;;;4.40;58.19;100567.20;102955;1261;108207;-70
2023/04/28 01:20:55;;;;;;;30.80;17.30;;;;;;;4.38;58.18;100571.51;103034;1257;99196;-70
2023/04/28 01:23:22;;;;;;;30.60;17.30;;;;;;;4.37;58.41;100572.03;102978;1260;138757;-69
2023/04/28 01:26:06;;;;;;;32.10;17.80;;;;;;;4.35;58.38;100570.31;103067;1261;108804;-70
2023/04/28 01:28:50;;;;;;;29.80;16.70;;;;;;;4.33;58.81;100571.17;102942;1260;139124;-70
2023/04/28 01:31:34;;;;;;;30.30;18.00;;;;;;;4.29;58.62;100573.91;102977;1261;107625;-71
2023/04/28 01:34:08;;;;;;;30.40;18.30;;;;;;;4.27;58.87;100577.20;102827;1258;139017;-71
2023/04/28 01:36:33;;;;;;;;;;;;;;;4.23;59.07;100577.20;103327;1257;112279;-70
2023/04/28 01:39:00;;;;;;;33.60;18.40;;;;;;;4.20;59.18;100573.95;103079;1261;107696;-69
2023/04/28 01:41:44;;;;;;;37.30;18.90;;;;;;;4.17;59.21;100575.84;102892;1257;139133;-68
2023/04/28 01:44:23;;;;;;;33.50;18.20;;;;;;;4.16;59.08;100577.40;102904;1257;109374;-69
2023/04/28 01:47:00;;;;;;;35.60;18.70;;;;;;;4.14;59.29;100579.64;102859;1260;139134;-69
2023/04/28 01:49:44;;;;;;;30.90;18.40;;;;;;;4.11;59.41;100582.02;103120;1257;112485;-69
2023/04/28 01:52:21;;;;;;;30.80;18.70;;;;;;;4.07;59.49;100585.30;102889;1257;139301;-69
2023/04/28 01:54:56;;;;;;;32.00;17.50;;;;;;;4.03;59.53;100586.00;103009;1257;99699;-69
2023/04/28 01:57:40;;;;;;;30.90;17.40;;;;;;;4.00;59.84;100587.03;102962;1257;107917;-69
2023/04/28 02:00:26;;;;;;;32.80;18.00;;;;;;;3.98;59.99;100586.86;103008;1257;99266;-69
2023/04/28 02:03:08;;;;;;;37.60;18.60;;;;;;;3.98;59.85;100582.73;103068;1257;113746;-69
2023/04/28 02:05:34;;;;;;;33.70;19.20;;;;;;;3.97;60.00;100583.42;102844;1261;139113;-69
2023/04/28 02:08:18;;;;;;;29.00;17.70;;;;;;;3.96;60.12;100584.29;103125;1256;99725;-69
2023/04/28 02:11:03;;;;;;;35.70;19.60;;;;;;;3.94;60.17;100585.47;103148;1257;138724;-69
2023/04/28 02:13:26;;;;;;;33.40;18.70;;;;;;;3.90;60.24;100585.98;102941;1256;99167;-69
2023/04/28 02:15:50;;;;;;;31.10;18.70;;;;;;;3.87;60.34;100582.54;103217;1257;112301;-69
2023/04/28 02:18:15;;;;;;;;;;;;;;;3.85;60.43;100581.69;103004;1258;107670;-70
2023/04/28 02:20:39;;;;;;;31.10;18.00;;;;;;;3.82;60.36;100583.23;103118;1256;99687;-69
2023/04/28 02:23:06;;;;;;;33.40;18.00;;;;;;;3.79;60.65;100580.67;102898;1260;138822;-70
2023/04/28 02:25:29;;;;;;;32.50;18.70;;;;;;;3.78;60.69;100583.42;102979;1257;99169;-71
2023/04/28 02:27:53;;;;;;;36.60;18.90;;;;;;;3.77;60.74;100584.27;103018;1257;113584;-71
2023/04/28 02:30:37;;;;;;;30.00;17.50;;;;;;;3.76;60.90;100580.30;103135;1256;108377;-69
2023/04/28 02:33:12;;;;;;;31.70;18.60;;;;;;;3.75;60.85;100583.39;103080;1256;99678;-69
2023/04/28 02:35:59;;;;;;;35.90;18.50;;;;;;;3.73;61.02;100585.63;103126;1257;138900;-70
2023/04/28 02:38:43;;;;;;;32.00;18.90;;;;;;;3.71;60.98;100585.98;103036;1260;99042;-70
2023/04/28 02:41:26;;;;;;;30.60;18.10;;;;;;;3.69;61.24;100591.13;103289;1257;138740;-70
2023/04/28 02:43:53;;;;;;;38.40;19.20;;;;;;;3.67;61.09;100589.76;102949;1257;108047;-70
2023/04/28 02:46:38;;;;;;;33.20;19.10;;;;;;;3.64;61.30;100589.76;102922;1257;139199;-70
2023/04/28 02:49:06;;;;;;;38.20;19.00;;;;;;;3.64;61.17;100590.96;103063;1260;108478;-69
2023/04/28 02:51:50;;;;;;;32.10;17.50;;;;;;;3.66;61.47;100587.86;103012;1260;99151;-70
2023/04/28 02:54:32;;;;;;;31.00;18.00;;;;;;;3.65;61.49;100590.27;103117;1257;113464;-70
2023/04/28 02:57:03;;;;;;;30.80;18.20;;;;;;;3.66;61.27;100590.27;103021;1258;108065;-70
2023/04/28 02:59:30;;;;;;;33.80;18.10;;;;;;;3.65;61.44;100590.11;103064;1258;138901;-70
2023/04/28 03:01:53;;;;;;;30.30;17.70;;;;;;;3.64;61.71;100592.34;103033;1257;108511;-70
2023/04/28 03:04:19;;;;;;;31.80;18.00;;;;;;;3.65;61.49;100592.69;102874;1257;139083;-70
2023/04/28 03:06:53;;;;;;;34.00;17.90;;;;;;;3.66;61.71;100594.92;103114;1263;112919;-70
2023/04/28 03:09:16;;;;;;;32.80;17.00;;;;;;;3.67;61.76;100595.43;102982;1257;107712;-70
2023/04/28 03:11:49;;;;;;;34.60;17.70;;;;;;;3.67;61.62;100591.64;102943;1257;138918;-70
2023/04/28 03:14:23;;;;;;;33.50;18.50;;;;;;;3.67;61.58;100596.64;102998;1260;108252;-70
2023/04/28 03:16:50;;;;;;;30.60;18.20;;;;;;;3.68;61.68;100597.67;102904;1257;138919;-70
2023/04/28 03:19:14;;;;;;;30.00;17.60;;;;;;;3.67;61.56;100598.36;103057;1257;113457;-70
2023/04/28 03:21:37;;;;;;;30.40;18.10;;;;;;;3.65;61.86;100596.13;103008;1258;108244;-70
2023/04/28 03:24:01;;;;;;;30.00;17.50;;;;;;;3.67;61.75;100595.95;102911;1257;138987;-70
2023/04/28 03:26:48;;;;;;;29.80;18.30;;;;;;;3.69;61.75;100598.02;102970;1258;110854;-70
2023/04/28 03:29:32;;;;;;;29.00;17.40;;;;;;;3.72;61.79;100598.18;102997;1256;138906;-70
2023/04/28 03:31:59;;;;;;;31.30;18.40;;;;;;;3.76;61.83;100599.38;103052;1257;113297;-70
2023/04/28 03:34:43;;;;;;;33.40;18.50;;;;;;;3.77;61.57;100600.76;102832;1258;140366;-70
2023/04/28 03:37:11;;;;;;;26.80;17.80;;;;;;;3.78;61.66;100601.81;102988;1257;99636;-69
2023/04/28 03:39:46;;;;;;;29.70;17.50;;;;;;;3.80;61.60;100600.27;103431;1261;108392;-69
2023/04/28 03:42:30;;;;;;;27.50;16.90;;;;;;;3.83;61.55;100602.67;103086;1256;99178;-70
2023/04/28 03:45:20;;;;;;;31.90;17.60;;;;;;;3.87;61.56;100600.77;103364;1256;111642;-70
2023/04/28 03:47:43;;;;;;;27.90;17.50;;;;;;;3.91;61.61;100603.19;102888;1256;139090;-70
2023/04/28 03:50:12;;;;;;;31.40;18.10;;;;;;;3.94;61.36;100598.02;103050;1256;99686;-71
2023/04/28 03:52:45;;;;;;;29.40;17.20;;;;;;;4.00;61.56;100602.52;103006;1258;139592;-70
2023/04/28 03:55:15;;;;;;;30.90;17.00;;;;;;;4.06;61.48;100599.59;104023;1261;99142;-70
2023/04/28 03:57:42;;;;;;;35.40;18.00;;;;;;;4.11;61.36;100602.69;103079;1260;113331;-70
2023/04/28 04:00:08;;;;;;;29.50;17.90;;;;;;;4.15;61.42;100602.00;103014;1256;138905;-70
2023/04/28 04:02:38;;;;;;;36.30;19.30;;;;;;;4.22;61.17;100605.95;100995;1258;1003357;-70
2023/04/28 04:05:02;;;;;;;34.10;18.00;;;;;;;4.28;61.05;100602.50;102946;1256;139078;-70
2023/04/28 04:07:26;;;;;;;35.00;19.60;;;;;;;4.36;61.04;100606.64;103127;1260;99145;-69
2023/04/28 04:09:51;;;;;;;32.30;19.30;;;;;;;4.42;60.79;100602.83;103043;1256;114048;-69
2023/04/28 04:12:14;;;;;;;35.20;19.20;;;;;;;4.49;60.80;100607.99;102805;1256;139056;-69
2023/04/28 04:14:59;;;;;;;34.70;18.60;;;;;;;4.51;60.87;100607.13;103505;1256;99572;-70
2023/04/28 04:17:43;;;;;;;33.60;17.60;;;;;;;4.54;60.76;100610.39;102936;1257;138642;-70
2023/04/28 04:20:26;;;;;;;33.20;18.60;;;;;;;4.58;60.40;100614.00;103311;1257;99133;-71
2023/04/28 04:23:02;;;;;;;37.20;20.80;;;;;;;4.62;60.48;100612.77;103194;1256;138806;-71
2023/04/28 04:25:46;;;;;;;35.20;19.80;;;;;;;4.69;60.48;100620.35;104386;1256;108809;-71
2023/04/28 04:28:21;;;;;;;35.40;19.10;;;;;;;4.80;60.37;100622.38;103513;1258;139167;-70
2023/04/28 04:30:50;;;;;;;34.70;19.70;;;;;;;4.93;60.13;100619.59;102886;1258;108948;-71
2023/04/28 04:33:34;;;;;;;37.50;20.20;;;;;;;5.07;59.93;100618.00;102942;1259;99254;-71
2023/04/28 04:36:18;;;;;;;28.50;17.00;;;;;;;5.19;59.81;100616.05;102880;1260;138548;-72
2023/04/28 04:39:02;;;;;;;32.40;18.20;;;;;;;5.39;59.66;100622.50;103085;1260;108397;-69
2023/04/28 04:41:45;;;;;;;35.60;18.90;;;;;;;5.75;59.73;100623.33;103000;1260;139117;-69
2023/04/28 04:44:30;;;;;;;33.20;18.70;;;;;;;6.13;59.23;100619.30;102943;1256;108747;-70
2023/04/28 04:47:13;;;;;;;31.20;17.60;;;;;;;6.86;59.02;100618.92;102871;1256;138442;-68
2023/04/28 04:49:57;;;;;;;29.60;16.20;;;;;;;8.82;57.50;100613.54;102974;1260;113256;-67
2023/04/28 04:52:24;;;;;;;26.40;14.60;;;;;;;10.87;55.10;100611.20;102760;1259;138643;-68
2023/04/28 04:54:51;;;;;;;28.60;15.60;;;;;;;12.88;52.41;100608.01;102876;1256;99696;-68
2023/04/28 04:57:15;;;;;;;30.50;15.30;;;;;;;14.61;49.21;100602.42;102976;1256;108698;-70
2023/04/28 05:00:03;;;;;;;28.30;14.70;;;;;;;16.27;46.33;100598.59;102792;1261;138473;-69
2023/04/28 05:02:27;;;;;;;25.00;14.90;;;;;;;17.61;43.77;100592.73;102892;1261;112287;-69
2023/04/28 05:04:51;;;;;;;25.80;16.60;;;;;;;18.90;41.81;100593.13;102724;1256;138482;-70
2023/04/28 05:07:15;;;;;;;27.00;15.20;;;;;;;20.12;39.79;100591.35;102807;1256;99122;-69
2023/04/28 05:09:39;;;;;;;21.80;14.00;;;;;;;21.13;37.91;100588.70;102875;1256;107494;-69
2023/04/28 05:12:03;;;;;;;22.70;14.20;;;;;;;22.05;36.03;100587.41;102701;1256;138478;-70
2023/04/28 05:14:26;;;;;;;22.80;14.00;;;;;;;22.90;34.75;100585.10;102812;1263;112542;-68
2023/04/28 05:16:50;;;;;;;22.00;14.50;;;;;;;23.67;33.21;100587.99;102818;1256;139227;-70
2023/04/28 05:19:22;;;;;;;23.50;14.30;;;;;;;24.40;31.94;100583.53;102669;1256;388303;-69
2023/04/28 05:21:47;;;;;;;22.90;14.70;;;;;;;25.26;31.00;100586.33;102848;1257;108426;-69
2023/04/28 05:24:10;;;;;;;23.20;14.50;;;;;;;26.00;30.19;100584.42;102754;1260;139788;-70
2023/04/28 05:26:34;;;;;;;19.50;13.30;;;;;;;26.68;28.79;100583.98;102915;1261;111680;-71
2023/04/28 05:29:01;;;;;;;21.00;14.20;;;;;;;27.26;27.68;100578.84;102706;1256;138562;-69
2023/04/28 05:31:25;;;;;;;23.60;14.50;;;;;;;27.79;27.04;100582.02;102991;1256;99928;-68
2023/04/28 05:33:50;;;;;;;19.10;13.40;;;;;;;28.35;26.23;100575.88;102966;1257;107658;-70
2023/04/28 05:36:15;;;;;;;20.30;13.90;;;;;;;28.85;25.43;100571.67;102882;1260;138683;-69
2023/04/28 05:38:39;;;;;;;21.00;13.80;;;;;;;29.35;24.88;100573.36;103064;1261;113140;-69
2023/04/28 05:41:03;;;;;;;18.70;13.10;;;;;;;30.00;24.31;100575.15;102852;1261;138550;-70
2023/04/28 05:43:27;;;;;;;22.30;13.10;;;;;;;30.61;23.69;100577.44;103038;1256;99231;-70
2023/04/28 05:45:51;;;;;;;20.10;13.00;;;;;;;31.16;23.26;100577.14;103007;1261;109125;-70
2023/04/28 05:48:15;;;;;;;24.50;13.20;;;;;;;31.50;22.09;100578.28;102986;1256;138951;-69
2023/04/28 05:50:38;;;;;;;19.30;12.50;;;;;;;31.68;21.72;100579.06;102983;1256;112719;-70
2023/04/28 05:53:03;;;;;;;15.50;11.90;;;;;;;32.01;21.32;100585.96;102935;1256;138536;-68
2023/04/28 05:55:27;;;;;;;20.50;12.40;;;;;;;32.37;21.12;100584.61;103760;1256;97437;-67
2023/04/28 05:57:52;;;;;;;25.00;12.20;;;;;;;32.83;20.65;100579.25;103168;1261;100521;-69
2023/04/28 06:00:18;;;;;;;19.70;12.20;;;;;;;33.01;19.93;100576.02;102849;1256;138307;-69
2023/04/28 06:02:41;;;;;;;21.30;12.20;;;;;;;33.30;19.52;100578.33;103420;1256;103946;-69
2023/04/28 06:05:06;;;;;;;22.30;12.30;;;;;;;33.36;19.19;100578.27;103312;1256;140672;-69
2023/04/28 06:07:30;;;;;;;19.80;12.50;;;;;;;33.66;19.22;100576.81;102970;1256;99589;-70
2023/04/28 06:09:53;;;;;;;19.20;12.20;;;;;;;34.13;18.86;100580.47;103025;1256;100274;-73
2023/04/28 06:12:18;;;;;;;22.60;11.60;;;;;;;34.61;18.48;100577.23;102822;1256;138707;-70
2023/04/28 06:14:41;;;;;;;15.10;10.90;;;;;;;34.72;17.74;100577.59;102837;1261;104807;-69
2023/04/28 06:17:05;;;;;;;23.00;11.80;;;;;;;34.39;17.61;100577.84;102917;1260;138489;-69
2023/04/28 06:19:29;;;;;;;21.70;13.10;;;;;;;34.44;17.87;100580.43;102966;1262;99201;-68
2023/04/28 06:21:52;;;;;;;18.90;14.50;;;;;;;34.66;17.54;100581.43;103008;1260;99720;-68
2023/04/28 06:24:16;;;;;;;15.10;10.90;;;;;;;34.72;17.09;100579.02;102956;1256;138289;-68
2023/04/28 06:26:42;;;;;;;18.90;11.20;;;;;;;34.74;17.24;100579.35;103305;1256;105174;-70
2023/04/28 06:29:05;;;;;;;18.60;10.40;;;;;;;35.03;17.25;100581.63;102897;1259;139125;-68
2023/04/28 06:31:29;;;;;;;18.10;11.20;;;;;;;35.35;16.92;100577.55;102981;1256;99166;-69
2023/04/28 06:33:52;;;;;;;15.30;10.10;;;;;;;35.59;16.75;100581.39;103089;1256;100933;-69
2023/04/28 06:36:19;;;;;;;18.00;10.60;;;;;;;35.98;16.58;100583.48;103384;1256;138264;-69
2023/04/28 06:38:42;;;;;;;19.60;11.10;;;;;;;36.03;16.23;100583.27;102985;1256;104966;-69
2023/04/28 06:41:06;;;;;;;17.20;10.10;;;;;;;36.03;16.02;100585.02;103139;1256;138513;-70
2023/04/28 06:43:30;;;;;;;13.20;10.20;;;;;;;36.11;15.89;100587.38;102939;1263;99286;-69
2023/04/28 06:46:17;;;;;;;15.40;10.20;;;;;;;36.22;15.87;100587.11;102925;1256;138524;-70
2023/04/28 06:48:41;;;;;;;14.30;9.10;;;;;;;36.40;15.56;100583.64;102881;1256;99108;-72
2023/04/28 06:51:05;;;;;;;16.00;8.90;;;;;;;36.38;15.24;100585.19;103013;1257;103975;-73
2023/04/28 06:53:30;;;;;;;12.50;8.20;;;;;;;36.58;15.45;100586.21;102810;1256;138376;-72
2023/04/28 06:55:55;;;;;;;12.00;8.30;;;;;;;36.99;15.17;100584.39;103025;1257;99162;-72
2023/04/28 06:58:20;;;;;;;12.90;7.90;;;;;;;37.26;14.78;100585.86;102879;1256;138094;-71
2023/04/28 07:00:44;;;;;;;15.80;8.40;;;;;;;37.15;14.42;100587.20;102883;1256;99305;-73
2023/04/28 07:03:07;;;;;;;15.40;7.70;;;;;;;36.69;14.08;100584.18;102995;1256;105363;-73
2023/04/28 07:05:33;;;;;;;12.30;7.60;;;;;;;36.37;14.34;100589.87;102964;1260;138162;-71
2023/04/28 07:07:56;;;;;;;8.70;5.90;;;;;;;36.50;14.42;100592.20;102973;1256;99127;-72
2023/04/28 07:10:20;;;;;;;12.90;7.30;;;;;;;36.49;14.39;100588.91;102722;1256;137962;-72
2023/04/28 07:12:43;;;;;;;12.60;6.00;;;;;;;36.67;14.02;100580.89;103007;1258;99142;-72
2023/04/28 07:15:09;;;;;;;15.80;5.40;;;;;;;36.53;13.83;100585.81;102974;1260;103959;-71
2023/04/28 07:17:33;;;;;;;10.70;5.40;;;;;;;36.43;13.65;100585.90;103675;1256;139123;-72
2023/04/28 07:19:57;;;;;;;6.60;5.00;;;;;;;36.38;13.54;100584.14;102878;1256;99234;-71
2023/04/28 07:22:20;;;;;;;6.80;4.80;;;;;;;36.43;13.43;100586.69;102821;1256;138324;-71
2023/04/28 07:24:44;;;;;;;12.60;5.80;;;;;;;36.40;13.43;100584.17;102931;1260;99146;-72
2023/04/28 07:27:07;;;;;;;6.10;3.50;;;;;;;36.56;13.41;100582.36;102999;1256;105081;-70
2023/04/28 07:29:33;;;;;;;6.00;3.40;;;;;;;36.62;12.81;100576.63;102969;1256;138003;-71
2023/04/28 07:31:56;;;;;;;6.50;3.40;;;;;;;36.58;12.55;100574.67;103321;1256;99169;-72
2023/04/28 07:34:20;;;;;;;6.20;4.00;;;;;;;36.29;12.54;100576.64;102860;1256;138765;-70
2023/04/28 07:36:43;;;;;;;10.80;4.30;;;;;;;36.27;12.94;100574.14;102944;1256;99235;-71
2023/04/28 07:39:07;;;;;;;12.30;5.40;;;;;;;36.42;12.94;100571.35;102982;1259;104647;-71
2023/04/28 07:41:35;;;;;;;12.40;5.30;;;;;;;36.28;12.88;100571.30;103372;1256;138276;-70
2023/04/28 07:43:58;;;;;;;10.30;5.20;;;;;;;35.97;12.84;100569.30;103125;1256;99137;-70
2023/04/28 07:46:22;;;;;;;9.20;5.10;;;;;;;35.90;12.94;100567.84;103134;1260;138163;-70
2023/04/28 07:48:46;;;;;;;7.00;4.50;;;;;;;35.81;12.98;100562.79;104114;1256;98140;-70
2023/04/28 07:51:09;;;;;;;10.10;4.60;;;;;;;36.03;13.21;100559.53;103004;1256;105416;-69
2023/04/28 07:53:34;;;;;;;8.80;4.40;;;;;;;36.33;13.22;100559.09;103078;1257;138585;-70
2023/04/28 07:55:57;;;;;;;5.10;3.80;;;;;;;36.26;12.76;100560.80;103049;1256;99175;-70
2023/04/28 07:58:20;;;;;;;7.40;3.10;;;;;;;36.08;12.66;100557.38;102929;1256;138038;-70
2023/04/28 08:00:45;;;;;;;7.70;3.80;;;;;;;35.92;12.57;100555.64;103188;1256;99142;-71
2023/04/28 08:03:08;;;;;;;8.60;4.10;;;;;;;35.83;12.47;100554.20;103448;1256;104480;-74
2023/04/28 08:05:32;;;;;;;7.90;3.60;;;;;;;35.87;12.71;100553.71;103257;1256;138133;-71
2023/04/28 08:07:56;;;;;;;7.20;3.00;;;;;;;35.93;12.37;100551.27;104286;1256;97192;-72
2023/04/28 08:10:20;;;;;;;4.50;2.40;;;;;;;35.94;12.35;100550.95;102925;1256;137980;-71
2023/04/28 08:12:44;;;;;;;5.20;2.00;;;;;;;36.05;12.23;100547.85;103145;1256;99212;-69
2023/04/28 08:15:09;;;;;;;4.50;2.20;;;;;;;35.98;12.14;100547.34;103451;1256;104956;-70
2023/04/28 08:17:32;;;;;;;6.60;2.50;;;;;;;36.06;12.27;100548.98;102889;1256;138001;-71
2023/04/28 08:19:56;;;;;;;5.90;2.60;;;;;;;36.05;12.10;100546.39;102984;1256;99025;-71
2023/04/28 08:22:20;;;;;;;4.60;2.40;;;;;;;36.02;11.99;100547.80;102843;1260;138476;-71
2023/04/28 08:24:43;;;;;;;4.00;2.70;;;;;;;36.05;12.07;100547.84;102988;1256;99148;-71
2023/04/28 08:27:07;;;;;;;4.50;2.20;;;;;;;35.90;11.98;100548.95;102998;1256;106030;-72
2023/04/28 08:29:31;;;;;;;6.40;2.30;;;;;;;35.83;12.03;100544.55;102822;1256;138054;-72
2023/04/28 08:31:54;;;;;;;3.60;1.90;;;;;;;35.93;11.85;100540.24;102987;1256;98082;-75
2023/04/28 08:34:18;;;;;;;3.70;2.00;;;;;;;35.81;11.67;100537.67;102805;1260;137943;-68
2023/04/28 08:36:42;;;;;;;4.90;2.80;;;;;;;35.72;11.61;100538.35;103126;1256;98067;-75
2023/04/28 08:39:07;;;;;;;5.70;2.40;;;;;;;35.34;11.44;100532.60;102972;1260;104934;-70
2023/04/28 08:41:32;;;;;;;7.70;2.80;;;;;;;35.05;11.75;100528.19;102756;1256;138234;-73
2023/04/28 08:43:57;;;;;;;5.90;2.50;;;;;;;34.31;11.89;100526.67;103019;1256;99700;-72
2023/04/28 08:46:23;;;;;;;5.90;2.80;;;;;;;33.61;12.35;100528.11;102848;1256;137989;-69
2023/04/28 08:48:48;;;;;;;7.60;2.60;;;;;;;32.99;13.35;100521.86;102932;1256;99912;-68
2023/04/28 08:51:15;;;;;;;5.30;2.90;;;;;;;32.77;13.44;100521.86;102897;1257;103611;-70
2023/04/28 08:53:39;;;;;;;3.50;2.10;;;;;;;32.54;12.44;100521.70;102840;1256;138062;-69
2023/04/28 08:56:26;;;;;;;7.80;2.20;;;;;;;31.18;12.04;100532.56;103042;1256;99162;-69
2023/04/28 08:58:51;;;;;;;3.50;1.80;;;;;;;29.60;12.13;100534.66;102978;1256;137774;-69
2023/04/28 09:01:15;;;;;;;8.80;2.20;;;;;;;28.25;12.65;100541.88;103053;1256;99148;-68
2023/04/28 09:03:39;;;;;;;4.50;2.20;;;;;;;27.19;13.38;100540.59;102958;1256;112609;-68
2023/04/28 09:06:02;;;;;;;4.40;2.50;;;;;;;26.16;13.91;100536.17;103409;1256;138744;-66
2023/04/28 09:08:26;;;;;;;6.40;2.30;;;;;;;25.71;14.41;100536.73;103056;1260;99067;-67
2023/04/28 09:11:06;;;;;;;4.30;2.50;;;;;;;25.26;14.81;100537.04;102897;1260;138271;-67
2023/04/28 09:13:32;;;;;;;4.80;2.30;;;;;;;24.96;15.09;100535.75;103087;1260;99152;-67
2023/04/28 09:16:00;;;;;;;3.80;2.30;;;;;;;25.34;15.91;100534.00;103576;1256;112804;-67
2023/04/28 09:18:24;;;;;;;9.50;2.80;;;;;;;25.50;15.72;100532.41;102738;1256;140263;-66
2023/04/28 09:20:47;;;;;;;5.60;2.40;;;;;;;24.82;15.46;100529.30;103139;1256;99129;-66
2023/04/28 09:23:16;;;;;;;5.00;2.50;;;;;;;23.95;15.38;100533.70;102926;1256;138150;-66
2023/04/28 09:25:39;;;;;;;4.30;2.50;;;;;;;23.78;16.08;100535.85;103607;1256;99172;-67
2023/04/28 09:28:20;;;;;;;6.20;2.80;;;;;;;24.12;16.37;100528.05;102972;1260;113224;-67
2023/04/28 09:30:44;;;;;;;3.10;2.10;;;;;;;24.64;16.47;100527.70;103281;1256;106777;-67
2023/04/28 09:33:07;;;;;;;6.50;3.00;;;;;;;25.14;16.33;100525.93;103235;1256;99197;-67
2023/04/28 09:35:41;;;;;;;4.30;2.10;;;;;;;25.86;15.82;100521.73;103442;1256;138020;-68
2023/04/28 09:38:05;;;;;;;5.80;2.80;;;;;;;26.43;15.80;100520.77;103151;1260;99327;-68
2023/04/28 09:40:28;;;;;;;4.40;2.60;;;;;;;26.75;15.49;100522.38;102953;1260;138224;-67
2023/04/28 09:42:52;;;;;;;7.00;2.80;;;;;;;27.02;15.17;100517.80;103006;1260;107484;-68
2023/04/28 09:45:16;;;;;;;4.10;2.60;;;;;;;27.33;15.24;100513.52;103130;1256;99466;-68
2023/04/28 09:47:41;;;;;;;4.80;2.20;;;;;;;27.64;15.01;100509.44;102967;1258;138012;-66
2023/04/28 09:50:10;;;;;;;4.40;2.70;;;;;;;27.82;14.65;100501.84;103036;1256;99229;-67
2023/04/28 09:52:34;;;;;;;4.90;2.60;;;;;;;27.14;14.38;100500.02;104283;1256;138738;-68
2023/04/28 09:55:00;;;;;;;3.50;2.20;;;;;;;27.13;14.85;100501.23;102984;1256;108867;-67
2023/04/28 09:57:23;;;;;;;;;;;;;;;27.60;15.38;100496.56;103071;1256;99145;-70
2023/04/28 09:59:49;;;;;;;6.50;3.10;;;;;;;27.94;14.77;100492.06;103075;1258;124541;-71
2023/04/28 10:02:14;;;;;;;5.50;2.80;;;;;;;27.63;14.80;100489.10;102918;1260;99159;-68
2023/04/28 10:04:58;;;;;;;6.00;2.80;;;;;;;27.96;15.27;100482.73;104258;1256;138085;-67
2023/04/28 10:07:22;;;;;;;8.40;3.30;;;;;;;28.17;14.58;100482.35;103429;1256;107653;-68
2023/04/28 10:09:48;;;;;;;5.40;3.10;;;;;;;27.98;14.39;100475.20;103053;1256;99146;-67
2023/04/28 10:12:13;;;;;;;6.20;4.10;;;;;;;27.90;14.47;100469.28;104285;1256;138287;-72
2023/04/28 10:14:37;;;;;;;6.40;3.10;;;;;;;27.84;14.43;100465.08;103521;1256;99722;-70
2023/04/28 10:17:02;;;;;;;6.00;3.10;;;;;;;27.73;14.50;100466.15;102947;1260;138064;-71
2023/04/28 10:19:26;;;;;;;3.80;3.00;;;;;;;27.53;14.66;100465.61;102915;1256;107713;-70
2023/04/28 10:22:05;;;;;;;8.40;3.30;;;;;;;27.41;14.71;100466.33;103009;1256;99546;-69
2023/04/28 10:24:30;;;;;;;11.40;3.00;;;;;;;26.59;14.74;100463.80;102877;1256;138277;-69
2023/04/28 10:27:10;;;;;;;7.40;3.00;;;;;;;25.63;15.21;100460.80;102992;1262;99061;-68
2023/04/28 10:29:34;;;;;;;5.20;3.20;;;;;;;24.85;15.75;100458.84;103482;1256;138748;-68
2023/04/28 10:32:25;;;;;;;7.50;2.70;;;;;;;24.42;15.90;100460.40;104359;1258;107498;-68
2023/04/28 10:34:48;;;;;;;6.10;2.90;;;;;;;24.27;16.39;100456.05;102896;1256;138481;-72
2023/04/28 10:37:16;;;;;;;5.00;2.70;;;;;;;24.07;16.33;100448.27;103006;1260;107454;-68
2023/04/28 10:39:40;;;;;;;5.90;2.80;;;;;;;24.12;16.80;100449.98;102956;1260;99754;-70
2023/04/28 10:42:03;;;;;;;6.80;3.40;;;;;;;24.19;16.60;100451.52;102938;1256;138056;-69
2023/04/28 10:44:43;;;;;;;6.70;3.10;;;;;;;24.00;16.81;100448.94;102960;1256;106999;-70
2023/04/28 10:47:08;;;;;;;6.80;3.30;;;;;;;23.45;16.76;100447.50;102722;1257;138747;-66
2023/04/28 10:50:05;;;;;;;8.80;3.50;;;;;;;23.01;17.37;100453.05;103023;1256;107893;-67
2023/04/28 10:52:50;;;;;;;9.00;3.30;;;;;;;22.84;17.50;100451.71;102869;1260;138813;-67
2023/04/28 10:55:35;;;;;;;7.70;3.20;;;;;;;22.37;17.64;100450.83;102945;1256;112926;-66
2023/04/28 10:58:36;;;;;;;6.70;3.20;;;;;;;21.87;18.16;100450.91;103141;1260;108146;-70
2023/04/28 11:01:28;;;;;;;6.00;2.90;;;;;;;21.37;18.22;100442.14;103944;1256;97349;-68
2023/04/28 11:03:58;;;;;;;8.10;3.30;;;;;;;20.78;18.57;100438.12;102889;1256;107591;-69
2023/04/28 11:06:24;;;;;;;6.10;3.20;;;;;;;20.35;19.02;100438.48;102819;1261;138234;-69
2023/04/28 11:08:48;;;;;;;8.10;3.50;;;;;;;19.96;19.17;100437.29;102865;1256;112239;-68
2023/04/28 11:11:20;;;;;;;6.70;2.80;;;;;;;19.77;19.24;100443.35;102763;1256;138260;-68
2023/04/28 11:13:45;;;;;;;13.70;3.30;;;;;;;19.58;19.65;100440.73;103196;1256;99173;-67
2023/04/28 11:16:09;;;;;;;6.80;2.50;;;;;;;19.48;19.95;100436.45;102970;1258;107733;-67
2023/04/28 11:18:47;;;;;;;5.30;2.60;;;;;;;19.28;19.70;100439.70;103168;1256;138027;-68
2023/04/28 11:21:13;;;;;;;9.60;2.80;;;;;;;18.73;19.72;100437.23;102954;1256;113185;-69